createdAt,value
2023-06-12T00:00:13.935Z,15.67
2023-06-12T00:04:33.350Z,15.63
2023-06-12T00:08:43.713Z,16.08
2023-06-12T00:17:02.024Z,16.26
2023-06-12T00:23:14.047Z,16.26
2023-06-12T00:42:17.131Z,16.21
2023-06-12T00:46:39.058Z,15.81
2023-06-12T00:50:42.823Z,16.11
2023-06-12T00:54:45.119Z,16.08
2023-06-12T01:02:18.157Z,16.00
2023-06-12T01:14:27.046Z,15.78
2023-06-12T01:26:05.758Z,15.54
2023-06-12T01:30:04.845Z,15.79
2023-06-12T01:34:11.109Z,15.69
2023-06-12T01:46:22.113Z,15.09
2023-06-12T01:57:58.473Z,15.28
2023-06-12T02:06:10.483Z,15.57
2023-06-12T02:14:29.599Z,14.89
2023-06-12T02:30:38.618Z,14.89
2023-06-12T02:43:11.630Z,14.81
2023-06-12T02:51:14.938Z,14.78
2023-06-12T02:59:08.204Z,15.29
2023-06-12T03:11:23.860Z,15.19
2023-06-12T03:19:09.497Z,15.42
2023-06-12T03:34:55.461Z,15.35
2023-06-12T03:38:59.707Z,15.42
2023-06-12T03:43:12.704Z,15.76
2023-06-12T04:00:29.691Z,15.71
2023-06-12T04:08:50.965Z,16.07
2023-06-12T04:21:01.597Z,16.03
2023-06-12T04:25:07.574Z,16.43
2023-06-12T04:29:40.840Z,16.73
2023-06-12T04:34:27.151Z,16.29
2023-06-12T04:46:20.621Z,17.08
2023-06-12T04:47:14.860Z,16.52
2023-06-12T04:55:56.060Z,16.91
2023-06-12T05:12:08.492Z,17.51
2023-06-12T05:24:04.744Z,17.26
2023-06-12T05:27:15.112Z,17.86
2023-06-12T05:30:37.565Z,17.69
2023-06-12T05:39:10.874Z,17.47
2023-06-12T05:46:22.175Z,17.88
2023-06-12T05:50:01.791Z,18.02
2023-06-12T05:54:11.148Z,17.98
2023-06-12T05:59:02.885Z,17.82
2023-06-12T06:05:42.020Z,17.20
2023-06-12T06:08:57.999Z,17.17
2023-06-12T06:12:00.352Z,16.90
2023-06-12T06:18:23.715Z,16.96
2023-06-12T06:21:27.953Z,17.61
2023-06-12T06:24:41.076Z,17.35
2023-06-12T06:27:46.947Z,17.43
2023-06-12T06:30:49.323Z,17.44
2023-06-12T06:33:53.033Z,18.24
2023-06-12T06:36:58.192Z,18.54
2023-06-12T06:40:00.426Z,18.51
2023-06-12T06:43:10.105Z,19.05
2023-06-12T06:46:16.741Z,18.94
2023-06-12T06:49:31.000Z,19.14
2023-06-12T06:52:57.233Z,19.09
2023-06-12T06:56:07.386Z,18.80
2023-06-12T06:59:17.064Z,19.34
2023-06-12T07:02:23.851Z,18.87
2023-06-12T07:05:30.703Z,18.83
2023-06-12T07:08:32.775Z,18.76
2023-06-12T07:11:36.324Z,18.30
2023-06-12T07:14:38.456Z,18.59
2023-06-12T07:17:40.910Z,18.79
2023-06-12T07:20:46.674Z,18.96
2023-06-12T07:23:49.532Z,19.02
2023-06-12T07:26:53.727Z,18.85
2023-06-12T07:29:57.928Z,19.18
2023-06-12T07:33:00.068Z,18.96
2023-06-12T07:36:04.871Z,19.23
2023-06-12T07:39:08.138Z,18.85
2023-06-12T07:42:10.366Z,19.41
2023-06-12T07:45:12.972Z,19.46
2023-06-12T07:48:15.369Z,19.10
2023-06-12T07:51:19.005Z,19.64
2023-06-12T07:54:22.592Z,19.79
2023-06-12T07:57:24.705Z,20.00
2023-06-12T08:00:29.404Z,20.17
2023-06-12T08:03:32.105Z,20.12
2023-06-12T08:06:35.729Z,19.55
2023-06-12T08:09:46.819Z,19.71
2023-06-12T08:12:52.079Z,19.94
2023-06-12T08:15:54.266Z,19.92
2023-06-12T08:19:00.181Z,20.59
2023-06-12T08:22:11.355Z,20.54
2023-06-12T08:25:13.803Z,20.35
2023-06-12T08:28:17.557Z,20.48
2023-06-12T08:31:20.043Z,20.61
2023-06-12T08:34:25.863Z,19.85
2023-06-12T08:37:29.574Z,20.25
2023-06-12T08:40:31.776Z,20.53
2023-06-12T08:43:38.081Z,20.80
2023-06-12T08:46:40.766Z,20.45
2023-06-12T08:49:43.912Z,20.52
2023-06-12T08:52:51.690Z,20.38
2023-06-12T08:55:55.324Z,21.22
2023-06-12T08:58:59.221Z,20.98
2023-06-12T09:02:13.152Z,21.39
2023-06-12T09:05:21.845Z,21.12
2023-06-12T09:08:25.640Z,21.06
2023-06-12T09:11:28.515Z,20.87
2023-06-12T09:14:38.992Z,21.50
2023-06-12T09:17:41.518Z,21.69
2023-06-12T09:20:44.322Z,20.51
2023-06-12T09:23:51.785Z,20.39
2023-06-12T09:26:57.550Z,20.18
2023-06-12T09:30:01.129Z,20.90
2023-06-12T09:33:04.551Z,20.29
2023-06-12T09:36:07.071Z,20.87
2023-06-12T09:39:17.851Z,21.81
2023-06-12T09:42:23.152Z,21.59
2023-06-12T09:45:28.225Z,21.37
2023-06-12T09:51:54.760Z,20.78
2023-06-12T09:54:58.520Z,20.75
2023-06-12T09:58:06.773Z,21.41
2023-06-12T10:01:09.762Z,21.41
2023-06-12T10:04:14.173Z,21.55
2023-06-12T10:07:25.110Z,22.14
2023-06-12T10:10:32.127Z,21.63
2023-06-12T10:13:35.996Z,22.00
2023-06-12T10:16:39.106Z,21.91
2023-06-12T10:19:41.919Z,22.21
2023-06-12T10:22:44.497Z,22.29
2023-06-12T10:25:48.897Z,21.88
2023-06-12T10:28:55.994Z,21.31
2023-06-12T10:32:07.848Z,22.21
2023-06-12T10:35:10.112Z,22.47
2023-06-12T10:38:14.211Z,21.84
2023-06-12T10:44:49.979Z,22.59
2023-06-12T10:48:18.947Z,22.30
2023-06-12T10:51:32.881Z,21.94
2023-06-12T10:54:36.435Z,21.84
2023-06-12T10:57:40.093Z,22.10
2023-06-12T11:00:48.351Z,22.00
2023-06-12T11:03:51.422Z,22.39
2023-06-12T11:06:53.575Z,23.48
2023-06-12T11:09:56.030Z,22.94
2023-06-12T11:12:58.467Z,21.87
2023-06-12T11:16:02.419Z,21.90
2023-06-12T11:19:05.863Z,22.61
2023-06-12T11:22:08.112Z,22.92
2023-06-12T11:25:10.830Z,21.91
2023-06-12T11:28:17.304Z,22.96
2023-06-12T11:31:20.601Z,23.36
2023-06-12T11:34:23.100Z,22.76
2023-06-12T11:37:27.203Z,22.67
2023-06-12T11:40:30.090Z,23.07
2023-06-12T11:43:33.000Z,23.44
2023-06-12T11:46:36.564Z,23.84
2023-06-12T11:49:39.271Z,23.33
2023-06-12T11:52:44.964Z,23.38
2023-06-12T11:58:56.342Z,23.02
2023-06-12T12:02:03.242Z,23.07
2023-06-12T12:05:06.142Z,23.23
2023-06-12T12:08:08.929Z,23.33
2023-06-12T12:11:22.198Z,23.23
2023-06-12T12:14:24.693Z,22.54
2023-06-12T12:17:32.046Z,22.58
2023-06-12T12:20:36.076Z,23.64
2023-06-12T12:23:38.024Z,24.40
2023-06-12T12:26:42.674Z,24.13
2023-06-12T12:29:59.623Z,23.64
2023-06-12T12:33:04.594Z,23.31
2023-06-12T12:36:07.021Z,23.29
2023-06-12T12:39:08.969Z,23.46
2023-06-12T12:42:12.073Z,24.24
2023-06-12T12:45:15.463Z,23.67
2023-06-12T12:48:19.901Z,23.54
2023-06-12T12:51:22.059Z,24.03
2023-06-12T12:54:24.932Z,23.19
2023-06-12T12:57:33.168Z,23.40
2023-06-12T13:00:35.145Z,23.34
2023-06-12T13:03:39.769Z,23.38
2023-06-12T13:06:43.002Z,23.66
2023-06-12T13:09:45.009Z,23.27
2023-06-12T13:12:47.077Z,23.94
2023-06-12T13:15:50.158Z,24.39
2023-06-12T13:18:54.251Z,24.01
2023-06-12T13:21:56.786Z,23.97
2023-06-12T13:24:58.661Z,24.73
2023-06-12T13:28:00.574Z,24.55
2023-06-12T13:31:02.732Z,24.56
2023-06-12T13:34:06.862Z,23.79
2023-06-12T13:37:08.900Z,24.07
2023-06-12T13:40:14.907Z,24.56
2023-06-12T13:43:17.762Z,24.23
2023-06-12T13:46:19.989Z,23.95
2023-06-12T13:49:25.573Z,23.90
2023-06-12T13:52:27.521Z,23.62
2023-06-12T13:55:29.847Z,23.88
2023-06-12T13:58:32.641Z,23.64
2023-06-12T14:01:34.910Z,23.18
2023-06-12T14:04:38.388Z,23.54
2023-06-12T14:07:41.102Z,23.52
2023-06-12T14:10:46.145Z,23.98
2023-06-12T14:13:48.714Z,23.89
2023-06-12T14:16:50.653Z,24.22
2023-06-12T14:19:53.955Z,24.41
2023-06-12T14:22:55.996Z,24.17
2023-06-12T14:25:57.842Z,24.00
2023-06-12T14:28:59.899Z,23.77
2023-06-12T14:32:02.904Z,23.92
2023-06-12T14:35:06.878Z,23.22
2023-06-12T14:38:08.862Z,23.37
2023-06-12T14:41:10.828Z,23.36
2023-06-12T14:44:16.105Z,23.29
2023-06-12T14:47:18.590Z,23.13
2023-06-12T14:50:22.041Z,23.17
2023-06-12T14:53:24.563Z,22.90
2023-06-12T14:56:26.528Z,23.32
2023-06-12T14:59:28.468Z,23.44
2023-06-12T15:02:30.628Z,23.06
2023-06-12T15:05:34.493Z,23.00
2023-06-12T15:08:36.473Z,23.13
2023-06-12T15:11:38.518Z,22.93
2023-06-12T15:14:40.441Z,22.54
2023-06-12T15:17:42.504Z,22.82
2023-06-12T15:20:45.926Z,22.65
2023-06-12T15:23:48.086Z,22.46
2023-06-12T15:26:50.848Z,22.49
2023-06-12T15:29:53.752Z,22.78
2023-06-12T15:32:56.968Z,22.76
2023-06-12T15:36:00.269Z,22.63
2023-06-12T15:39:02.441Z,22.47
2023-06-12T15:42:05.778Z,22.11
2023-06-12T15:45:09.031Z,22.60
2023-06-12T15:48:11.563Z,22.61
2023-06-12T15:51:16.539Z,22.29
2023-06-12T15:54:18.454Z,21.92
2023-06-12T15:57:21.427Z,22.20
2023-06-12T16:00:23.451Z,22.27
2023-06-12T16:03:27.901Z,22.39
2023-06-12T16:06:31.235Z,22.08
2023-06-12T16:09:33.203Z,22.21
2023-06-12T16:12:35.421Z,21.80
2023-06-12T16:15:37.473Z,21.60
2023-06-12T16:18:40.349Z,21.81
2023-06-12T16:21:43.665Z,21.91
2023-06-12T16:24:46.639Z,21.84
2023-06-12T16:27:49.382Z,21.58
2023-06-12T16:30:51.496Z,21.76
2023-06-12T16:33:54.289Z,21.42
2023-06-12T16:36:57.632Z,21.65
2023-06-12T16:40:09.849Z,21.55
2023-06-12T16:43:12.496Z,21.15
2023-06-12T16:46:15.402Z,20.15
2023-06-12T16:49:22.402Z,21.13
2023-06-12T16:52:27.567Z,21.37
2023-06-12T16:55:29.651Z,21.43
2023-06-12T16:58:31.975Z,21.29
2023-06-12T17:01:33.956Z,21.31
2023-06-12T17:04:36.236Z,21.26
2023-06-12T17:07:39.572Z,21.31
2023-06-12T17:10:41.483Z,21.27
2023-06-12T17:13:44.169Z,20.99
2023-06-12T17:16:46.224Z,20.68
2023-06-12T17:19:49.364Z,20.67
2023-06-12T17:22:54.467Z,20.53
2023-06-12T17:25:59.243Z,20.52
2023-06-12T17:29:02.702Z,20.35
2023-06-12T17:32:06.088Z,20.19
2023-06-12T17:35:08.976Z,20.19
2023-06-12T17:38:12.442Z,19.91
2023-06-12T17:41:15.160Z,19.97
2023-06-12T17:44:17.078Z,19.87
2023-06-12T17:47:19.236Z,19.86
2023-06-12T17:50:21.561Z,19.52
2023-06-12T17:53:25.096Z,19.52
2023-06-12T17:56:27.736Z,19.75
2023-06-12T17:59:30.352Z,19.10
2023-06-12T18:02:33.135Z,19.54
2023-06-12T18:05:35.107Z,19.22
2023-06-12T18:08:38.542Z,19.31
2023-06-12T18:11:41.180Z,18.69
2023-06-12T18:14:43.077Z,18.95
2023-06-12T18:17:45.322Z,18.96
2023-06-12T18:20:47.305Z,19.01
2023-06-12T18:23:52.114Z,18.94
2023-06-12T18:26:55.059Z,18.88
2023-06-12T18:29:56.968Z,18.83
2023-06-12T18:32:59.424Z,18.73
2023-06-12T18:36:01.505Z,18.51
2023-06-12T18:39:05.573Z,18.41
2023-06-12T18:42:08.596Z,18.13
2023-06-12T18:45:11.288Z,18.23
2023-06-12T18:48:13.994Z,18.24
2023-06-12T18:51:16.016Z,18.31
2023-06-12T18:54:21.161Z,18.19
2023-06-12T18:57:23.982Z,17.88
2023-06-12T19:00:26.041Z,17.85
2023-06-12T19:03:28.853Z,17.87
2023-06-12T19:06:30.864Z,17.69
2023-06-12T19:09:34.135Z,17.59
2023-06-12T19:12:36.914Z,17.51
2023-06-12T19:15:42.267Z,17.52
2023-06-12T19:18:43.916Z,17.48
2023-06-12T19:21:45.913Z,17.50
2023-06-12T19:24:49.189Z,17.45
2023-06-12T19:27:51.083Z,17.26
2023-06-12T19:30:53.838Z,17.04
2023-06-12T19:33:55.774Z,16.97
2023-06-12T19:36:57.840Z,16.95
2023-06-12T19:40:01.248Z,16.54
2023-06-12T19:43:03.260Z,16.33
2023-06-12T19:46:05.283Z,16.02
2023-06-12T19:49:07.269Z,15.97
2023-06-12T19:52:10.017Z,15.76
2023-06-12T19:55:16.438Z,15.62
2023-06-12T19:58:18.808Z,15.60
2023-06-12T20:01:20.665Z,15.74
2023-06-12T20:04:22.803Z,16.01
2023-06-12T20:07:24.629Z,16.41
2023-06-12T20:10:28.293Z,16.54
2023-06-12T20:13:30.109Z,16.73
2023-06-12T20:16:34.956Z,16.65
2023-06-12T20:19:36.915Z,16.94
2023-06-12T20:22:40.202Z,16.96
2023-06-12T20:25:43.617Z,16.89
2023-06-12T20:28:45.764Z,16.68
2023-06-12T20:31:47.676Z,16.50
2023-06-12T20:34:49.713Z,16.10
2023-06-12T20:37:51.602Z,16.33
2023-06-12T20:40:55.063Z,16.26
2023-06-12T20:43:57.706Z,16.24
2023-06-12T20:46:59.793Z,15.74
2023-06-12T20:50:02.793Z,16.04
2023-06-12T20:53:04.782Z,15.93
2023-06-12T20:56:08.117Z,15.67
2023-06-12T20:59:10.784Z,15.77
2023-06-12T21:02:12.646Z,15.70
2023-06-12T21:05:14.745Z,15.69
2023-06-12T21:08:17.537Z,15.71
2023-06-12T21:11:31.508Z,15.80
2023-06-12T21:14:33.651Z,15.76
2023-06-12T21:17:35.597Z,15.96
2023-06-12T21:20:37.429Z,15.85
2023-06-12T21:23:39.314Z,16.03
2023-06-12T21:26:42.516Z,16.05
2023-06-12T21:29:45.399Z,15.50
2023-06-12T21:32:47.380Z,16.10
2023-06-12T21:35:51.010Z,16.06
2023-06-12T21:38:54.527Z,16.12
2023-06-12T21:41:57.772Z,16.06
2023-06-12T21:44:59.775Z,16.06
2023-06-12T21:48:01.732Z,15.30
2023-06-12T21:51:04.736Z,15.86
2023-06-12T21:54:06.648Z,15.41
2023-06-12T21:57:12.023Z,16.12
2023-06-12T22:00:14.154Z,16.05
2023-06-12T22:03:16.078Z,16.06
2023-06-12T22:06:17.961Z,16.30
2023-06-12T22:09:20.492Z,16.19
2023-06-12T22:12:23.785Z,16.15
2023-06-12T22:15:25.707Z,16.27
2023-06-12T22:18:27.701Z,16.13
2023-06-12T22:21:30.490Z,16.25
2023-06-12T22:24:32.394Z,16.23
2023-06-12T22:27:35.790Z,16.19
2023-06-12T22:30:56.311Z,16.16
2023-06-12T22:34:00.537Z,16.34
2023-06-12T22:37:04.420Z,16.29
2023-06-12T22:40:08.562Z,16.21
2023-06-12T22:43:14.342Z,16.25
2023-06-12T22:46:16.317Z,16.09
2023-06-12T22:49:20.230Z,16.25
2023-06-12T22:52:22.662Z,16.22
2023-06-12T22:55:24.627Z,16.16
2023-06-12T22:58:28.035Z,15.67
2023-06-12T23:01:31.601Z,15.55
2023-06-12T23:04:36.204Z,15.53
2023-06-12T23:07:39.412Z,15.23
2023-06-12T23:10:41.398Z,15.52
2023-06-12T23:13:44.835Z,15.44
2023-06-12T23:16:47.771Z,15.83
2023-06-12T23:19:51.013Z,15.82
2023-06-12T23:22:55.715Z,15.84
2023-06-12T23:25:59.150Z,15.76
2023-06-12T23:29:06.891Z,15.67
2023-06-12T23:32:09.521Z,15.06
2023-06-12T23:35:11.487Z,15.08
2023-06-12T23:38:13.748Z,15.44
2023-06-12T23:41:15.946Z,15.66
2023-06-12T23:44:19.625Z,15.65
2023-06-12T23:47:21.470Z,15.50
2023-06-12T23:50:23.439Z,15.62
2023-06-12T23:53:27.859Z,15.66
2023-06-12T23:56:30.351Z,15.75
2023-06-12T23:59:33.573Z,15.73
